sensor_id;sensor_type;location;lat;lon;timestamp;pressure;altitude;pressure_sealevel;temperature;humidity
11808;BME280;5961;42.640;23.380;2024-02-15T00:00:40;94419.94;;;4.19;77.37
11808;BME280;5961;42.640;23.380;2024-02-15T00:03:08;94429.03;;;4.08;77.67
11808;BME280;5961;42.640;23.380;2024-02-15T00:05:38;94418.78;;;4.06;78.01
11808;BME280;5961;42.640;23.380;2024-02-15T00:08:06;94417.16;;;4.10;77.72
11808;BME280;5961;42.640;23.380;2024-02-15T00:10:34;94420.00;;;4.14;78.00
11808;BME280;5961;42.640;23.380;2024-02-15T00:13:00;94431.38;;;4.09;77.77
11808;BME280;5961;42.640;23.380;2024-02-15T00:15:27;94426.91;;;4.10;77.30
11808;BME280;5961;42.640;23.380;2024-02-15T00:17:54;94436.41;;;4.06;77.63
11808;BME280;5961;42.640;23.380;2024-02-15T00:20:21;94450.84;;;4.08;77.54
11808;BME280;5961;42.640;23.380;2024-02-15T00:22:48;94422.75;;;4.04;78.31
11808;BME280;5961;42.640;23.380;2024-02-15T00:25:15;94434.41;;;3.98;77.65
11808;BME280;5961;42.640;23.380;2024-02-15T00:28:05;94425.09;;;4.05;77.84
11808;BME280;5961;42.640;23.380;2024-02-15T00:30:32;94461.16;;;4.05;77.56
11808;BME280;5961;42.640;23.380;2024-02-15T00:32:59;94442.84;;;3.95;78.36
11808;BME280;5961;42.640;23.380;2024-02-15T00:35:28;94428.34;;;3.97;78.10
11808;BME280;5961;42.640;23.380;2024-02-15T00:37:55;94472.28;;;3.97;77.70
11808;BME280;5961;42.640;23.380;2024-02-15T00:40:22;94379.78;;;3.71;77.69
11808;BME280;5961;42.640;23.380;2024-02-15T00:42:49;94449.38;;;3.97;77.51
11808;BME280;5961;42.640;23.380;2024-02-15T00:45:17;94428.69;;;3.91;77.69
11808;BME280;5961;42.640;23.380;2024-02-15T00:47:44;94429.13;;;3.98;77.58
11808;BME280;5961;42.640;23.380;2024-02-15T00:50:09;94441.91;;;3.85;78.20
11808;BME280;5961;42.640;23.380;2024-02-15T00:52:36;94435.59;;;3.86;77.81
11808;BME280;5961;42.640;23.380;2024-02-15T00:55:03;94427.13;;;3.90;77.36
11808;BME280;5961;42.640;23.380;2024-02-15T00:57:30;94437.44;;;3.86;77.55
11808;BME280;5961;42.640;23.380;2024-02-15T00:59:57;94443.69;;;3.90;78.41
11808;BME280;5961;42.640;23.380;2024-02-15T01:02:26;94435.28;;;3.88;77.68
11808;BME280;5961;42.640;23.380;2024-02-15T01:04:54;94432.44;;;3.84;77.68
11808;BME280;5961;42.640;23.380;2024-02-15T01:07:24;94441.97;;;3.80;78.07
11808;BME280;5961;42.640;23.380;2024-02-15T01:09:53;94457.69;;;3.85;78.07
11808;BME280;5961;42.640;23.380;2024-02-15T01:12:19;94444.03;;;3.83;77.58
11808;BME280;5961;42.640;23.380;2024-02-15T01:14:47;94442.22;;;3.79;78.69
11808;BME280;5961;42.640;23.380;2024-02-15T01:17:14;94444.31;;;3.82;77.71
11808;BME280;5961;42.640;23.380;2024-02-15T01:19:42;94431.16;;;3.82;77.46
11808;BME280;5961;42.640;23.380;2024-02-15T01:22:09;94432.41;;;3.90;77.71
11808;BME280;5961;42.640;23.380;2024-02-15T01:24:35;94437.69;;;3.84;77.53
11808;BME280;5961;42.640;23.380;2024-02-15T01:27:02;94432.41;;;3.90;77.34
11808;BME280;5961;42.640;23.380;2024-02-15T01:29:29;94426.63;;;3.87;77.29
11808;BME280;5961;42.640;23.380;2024-02-15T01:31:55;94418.97;;;3.91;78.17
11808;BME280;5961;42.640;23.380;2024-02-15T01:34:22;94447.38;;;3.89;77.73
11808;BME280;5961;42.640;23.380;2024-02-15T01:36:50;94431.47;;;3.75;77.85
11808;BME280;5961;42.640;23.380;2024-02-15T01:39:17;94438.53;;;3.80;78.26
11808;BME280;5961;42.640;23.380;2024-02-15T01:41:46;94422.63;;;3.90;77.99
11808;BME280;5961;42.640;23.380;2024-02-15T01:44:16;94458.16;;;3.87;78.09
11808;BME280;5961;42.640;23.380;2024-02-15T01:46:43;94422.44;;;3.86;78.49
11808;BME280;5961;42.640;23.380;2024-02-15T01:49:11;94428.25;;;3.83;77.48
11808;BME280;5961;42.640;23.380;2024-02-15T01:51:39;94431.16;;;3.82;77.89
11808;BME280;5961;42.640;23.380;2024-02-15T01:54:10;94419.28;;;3.84;77.79
11808;BME280;5961;42.640;23.380;2024-02-15T01:56:37;94458.56;;;3.76;77.82
11808;BME280;5961;42.640;23.380;2024-02-15T01:59:04;94444.59;;;3.80;77.50
11808;BME280;5961;42.640;23.380;2024-02-15T02:01:31;94425.09;;;3.81;77.86
11808;BME280;5961;42.640;23.380;2024-02-15T02:03:58;94427.75;;;3.81;78.09
11808;BME280;5961;42.640;23.380;2024-02-15T02:06:26;94432.66;;;3.88;77.89
11808;BME280;5961;42.640;23.380;2024-02-15T02:08:53;94441.34;;;3.88;77.46
11808;BME280;5961;42.640;23.380;2024-02-15T02:11:23;94430.38;;;3.81;78.06
11808;BME280;5961;42.640;23.380;2024-02-15T02:13:50;94429.97;;;3.69;78.26
11808;BME280;5961;42.640;23.380;2024-02-15T02:16:26;94442.53;;;3.77;78.01
11808;BME280;5961;42.640;23.380;2024-02-15T02:18:54;94435.63;;;3.81;77.55
11808;BME280;5961;42.640;23.380;2024-02-15T02:21:22;94433.28;;;3.80;78.20
11808;BME280;5961;42.640;23.380;2024-02-15T02:23:53;94447.44;;;3.84;77.60
11808;BME280;5961;42.640;23.380;2024-02-15T02:26:22;94438.78;;;3.83;77.89
11808;BME280;5961;42.640;23.380;2024-02-15T02:28:49;94446.13;;;3.81;77.91
11808;BME280;5961;42.640;23.380;2024-02-15T02:31:16;94464.03;;;3.79;78.30
11808;BME280;5961;42.640;23.380;2024-02-15T02:33:47;94465.66;;;3.75;78.25
11808;BME280;5961;42.640;23.380;2024-02-15T02:36:15;94460.13;;;3.77;77.92
11808;BME280;5961;42.640;23.380;2024-02-15T02:38:42;94453.75;;;3.83;78.07
11808;BME280;5961;42.640;23.380;2024-02-15T02:41:10;94463.94;;;3.90;77.91
11808;BME280;5961;42.640;23.380;2024-02-15T02:43:39;94446.13;;;3.81;78.20
11808;BME280;5961;42.640;23.380;2024-02-15T02:46:05;94450.59;;;3.81;77.80
11808;BME280;5961;42.640;23.380;2024-02-15T02:48:32;94446.66;;;3.83;77.33
11808;BME280;5961;42.640;23.380;2024-02-15T02:50:59;94466.75;;;3.74;77.71
11808;BME280;5961;42.640;23.380;2024-02-15T02:53:25;94474.50;;;3.84;77.64
11808;BME280;5961;42.640;23.380;2024-02-15T02:55:52;94466.59;;;3.90;77.22
11808;BME280;5961;42.640;23.380;2024-02-15T02:58:19;94455.03;;;3.85;77.27
11808;BME280;5961;42.640;23.380;2024-02-15T03:00:47;94473.00;;;3.78;77.56
11808;BME280;5961;42.640;23.380;2024-02-15T03:03:14;94475.44;;;3.70;78.11
11808;BME280;5961;42.640;23.380;2024-02-15T03:05:40;94470.88;;;3.80;77.65
11808;BME280;5961;42.640;23.380;2024-02-15T03:08:08;94470.13;;;3.75;77.57
11808;BME280;5961;42.640;23.380;2024-02-15T03:10:35;94476.13;;;3.80;77.92
11808;BME280;5961;42.640;23.380;2024-02-15T03:13:01;94464.00;;;3.84;78.00
11808;BME280;5961;42.640;23.380;2024-02-15T03:15:30;94469.78;;;3.86;77.63
11808;BME280;5961;42.640;23.380;2024-02-15T03:17:59;94455.66;;;3.77;78.39
11808;BME280;5961;42.640;23.380;2024-02-15T03:20:32;94476.13;;;3.80;77.73
11808;BME280;5961;42.640;23.380;2024-02-15T03:23:00;94463.72;;;3.86;77.63
11808;BME280;5961;42.640;23.380;2024-02-15T03:25:28;94494.56;;;3.75;78.05
11808;BME280;5961;42.640;23.380;2024-02-15T03:27:56;94470.13;;;3.75;78.51
11808;BME280;5961;42.640;23.380;2024-02-15T03:30:24;94478.00;;;3.75;77.96
11808;BME280;5961;42.640;23.380;2024-02-15T03:32:51;94488.75;;;3.78;78.45
11808;BME280;5961;42.640;23.380;2024-02-15T03:35:21;94479.50;;;3.57;79.39
11808;BME280;5961;42.640;23.380;2024-02-15T03:37:48;94481.63;;;3.55;78.84
11808;BME280;5961;42.640;23.380;2024-02-15T03:40:16;94492.66;;;3.57;78.92
11808;BME280;5961;42.640;23.380;2024-02-15T03:42:43;94487.69;;;3.56;79.37
11808;BME280;5961;42.640;23.380;2024-02-15T03:45:10;94472.78;;;3.46;79.15
11808;BME280;5961;42.640;23.380;2024-02-15T03:47:37;94466.47;;;3.47;78.53
11808;BME280;5961;42.640;23.380;2024-02-15T03:50:04;94467.53;;;3.46;79.05
11808;BME280;5961;42.640;23.380;2024-02-15T03:52:32;94476.03;;;3.33;79.86
11808;BME280;5961;42.640;23.380;2024-02-15T03:55:00;94482.88;;;3.34;80.11
11808;BME280;5961;42.640;23.380;2024-02-15T03:57:27;94471.56;;;3.33;80.04
11808;BME280;5961;42.640;23.380;2024-02-15T03:59:54;94463.50;;;3.25;79.96
11808;BME280;5961;42.640;23.380;2024-02-15T04:02:23;94471.63;;;3.28;80.02
11808;BME280;5961;42.640;23.380;2024-02-15T04:04:51;94454.09;;;3.19;80.70
11808;BME280;5961;42.640;23.380;2024-02-15T04:07:20;94465.84;;;3.26;80.37
11808;BME280;5961;42.640;23.380;2024-02-15T04:09:48;94505.00;;;3.28;80.17
11808;BME280;5961;42.640;23.380;2024-02-15T04:12:15;94470.41;;;3.16;80.18
11808;BME280;5961;42.640;23.380;2024-02-15T04:14:43;94458.34;;;3.15;81.13
11808;BME280;5961;42.640;23.380;2024-02-15T04:17:10;94456.78;;;3.14;81.30
11808;BME280;5961;42.640;23.380;2024-02-15T04:19:39;94462.78;;;3.14;81.18
11808;BME280;5961;42.640;23.380;2024-02-15T04:22:06;94469.44;;;3.07;81.33
11808;BME280;5961;42.640;23.380;2024-02-15T04:24:33;94476.53;;;3.06;81.30
11808;BME280;5961;42.640;23.380;2024-02-15T04:27:05;94474.72;;;3.02;82.07
11808;BME280;5961;42.640;23.380;2024-02-15T04:29:33;94465.03;;;2.97;82.47
11808;BME280;5961;42.640;23.380;2024-02-15T04:32:00;94415.09;;;2.73;82.38
11808;BME280;5961;42.640;23.380;2024-02-15T04:34:26;94476.63;;;2.91;82.09
11808;BME280;5961;42.640;23.380;2024-02-15T04:36:53;94475.28;;;2.99;82.09
11808;BME280;5961;42.640;23.380;2024-02-15T04:39:21;94430.53;;;2.75;82.37
11808;BME280;5961;42.640;23.380;2024-02-15T04:41:52;94477.38;;;2.97;82.26
11808;BME280;5961;42.640;23.380;2024-02-15T04:44:20;94487.63;;;2.98;82.02
11808;BME280;5961;42.640;23.380;2024-02-15T04:46:47;94485.56;;;2.90;83.00
11808;BME280;5961;42.640;23.380;2024-02-15T04:49:14;94497.69;;;2.86;82.49
11808;BME280;5961;42.640;23.380;2024-02-15T04:51:41;94518.13;;;2.84;82.89
11808;BME280;5961;42.640;23.380;2024-02-15T04:54:09;94498.53;;;2.76;83.47
11808;BME280;5961;42.640;23.380;2024-02-15T04:56:38;94491.16;;;2.78;83.65
11808;BME280;5961;42.640;23.380;2024-02-15T04:59:05;94491.69;;;2.81;83.72
11808;BME280;5961;42.640;23.380;2024-02-15T05:01:35;94491.59;;;2.91;83.44
11808;BME280;5961;42.640;23.380;2024-02-15T05:04:02;94501.56;;;2.94;83.30
11808;BME280;5961;42.640;23.380;2024-02-15T05:06:29;94509.41;;;2.94;82.72
11808;BME280;5961;42.640;23.380;2024-02-15T05:08:57;94495.50;;;2.98;82.96
11808;BME280;5961;42.640;23.380;2024-02-15T05:11:25;94523.59;;;2.98;82.62
11808;BME280;5961;42.640;23.380;2024-02-15T05:13:54;94519.13;;;2.93;82.67
11808;BME280;5961;42.640;23.380;2024-02-15T05:16:20;94501.03;;;2.92;82.73
11808;BME280;5961;42.640;23.380;2024-02-15T05:18:48;94525.22;;;2.89;82.98
11808;BME280;5961;42.640;23.380;2024-02-15T05:21:15;94509.50;;;2.84;83.19
11808;BME280;5961;42.640;23.380;2024-02-15T05:23:42;94518.38;;;2.88;83.33
11808;BME280;5961;42.640;23.380;2024-02-15T05:26:11;94511.53;;;2.92;83.10
11808;BME280;5961;42.640;23.380;2024-02-15T05:28:40;94514.72;;;2.89;82.38
11808;BME280;5961;42.640;23.380;2024-02-15T05:31:11;94528.34;;;2.96;82.69
11808;BME280;5961;42.640;23.380;2024-02-15T05:33:39;94531.00;;;2.86;83.36
11808;BME280;5961;42.640;23.380;2024-02-15T05:36:11;94541.47;;;2.96;83.07
11808;BME280;5961;42.640;23.380;2024-02-15T05:38:37;94530.97;;;2.96;82.61
11808;BME280;5961;42.640;23.380;2024-02-15T05:41:04;94525.72;;;2.96;82.67
11808;BME280;5961;42.640;23.380;2024-02-15T05:43:32;94532.25;;;2.93;82.84
11808;BME280;5961;42.640;23.380;2024-02-15T05:46:01;94530.47;;;2.89;82.78
11808;BME280;5961;42.640;23.380;2024-02-15T05:48:28;94519.94;;;2.94;82.75
11808;BME280;5961;42.640;23.380;2024-02-15T05:50:55;94549.34;;;2.96;82.25
11808;BME280;5961;42.640;23.380;2024-02-15T05:53:24;94538.03;;;2.95;82.69
11808;BME280;5961;42.640;23.380;2024-02-15T05:55:50;94494.56;;;2.79;82.29
11808;BME280;5961;42.640;23.380;2024-02-15T05:58:17;94529.63;;;2.93;82.82
11808;BME280;5961;42.640;23.380;2024-02-15T06:00:44;94534.63;;;2.95;82.62
11808;BME280;5961;42.640;23.380;2024-02-15T06:03:15;94546.75;;;2.86;83.15
11808;BME280;5961;42.640;23.380;2024-02-15T06:05:42;94542.00;;;2.93;82.35
11808;BME280;5961;42.640;23.380;2024-02-15T06:08:09;94567.72;;;2.96;82.89
11808;BME280;5961;42.640;23.380;2024-02-15T06:10:39;94560.38;;;2.88;82.73
11808;BME280;5961;42.640;23.380;2024-02-15T06:13:05;94577.22;;;2.82;82.89
11808;BME280;5961;42.640;23.380;2024-02-15T06:15:34;94585.59;;;2.89;83.07
11808;BME280;5961;42.640;23.380;2024-02-15T06:18:01;94570.38;;;2.86;83.18
11808;BME280;5961;42.640;23.380;2024-02-15T06:20:34;94560.94;;;2.90;83.36
11808;BME280;5961;42.640;23.380;2024-02-15T06:23:01;94571.19;;;2.86;82.82
11808;BME280;5961;42.640;23.380;2024-02-15T06:25:30;94594.50;;;2.88;83.34
11808;BME280;5961;42.640;23.380;2024-02-15T06:27:58;94573.56;;;2.83;83.79
11808;BME280;5961;42.640;23.380;2024-02-15T06:30:27;94585.34;;;2.85;83.48
11808;BME280;5961;42.640;23.380;2024-02-15T06:33:12;94584.06;;;2.83;82.90
11808;BME280;5961;42.640;23.380;2024-02-15T06:36:05;94597.16;;;2.83;83.04
11808;BME280;5961;42.640;23.380;2024-02-15T06:38:49;94590.06;;;2.88;83.79
11808;BME280;5961;42.640;23.380;2024-02-15T06:41:33;94587.47;;;2.83;83.60
11808;BME280;5961;42.640;23.380;2024-02-15T06:44:01;94574.31;;;2.88;84.14
11808;BME280;5961;42.640;23.380;2024-02-15T06:46:28;94587.47;;;2.83;83.86
11808;BME280;5961;42.640;23.380;2024-02-15T06:48:54;94599.81;;;2.78;83.79
11808;BME280;5961;42.640;23.380;2024-02-15T06:51:23;94588.25;;;2.78;83.56
11808;BME280;5961;42.640;23.380;2024-02-15T06:53:50;94596.63;;;2.86;83.96
11808;BME280;5961;42.640;23.380;2024-02-15T06:56:16;94554.22;;;2.68;84.13
11808;BME280;5961;42.640;23.380;2024-02-15T06:58:45;94594.50;;;2.88;83.99
11808;BME280;5961;42.640;23.380;2024-02-15T07:01:15;94591.09;;;2.87;84.01
11808;BME280;5961;42.640;23.380;2024-02-15T07:03:43;94581.13;;;2.89;83.56
11808;BME280;5961;42.640;23.380;2024-02-15T07:06:10;94597.91;;;2.93;84.09
11808;BME280;5961;42.640;23.380;2024-02-15T07:08:39;94563.25;;;2.91;83.51
11808;BME280;5961;42.640;23.380;2024-02-15T07:11:06;94586.13;;;2.86;83.62
11808;BME280;5961;42.640;23.380;2024-02-15T07:13:34;94571.22;;;2.76;83.45
11808;BME280;5961;42.640;23.380;2024-02-15T07:16:01;94576.44;;;2.81;83.42
11808;BME280;5961;42.640;23.380;2024-02-15T07:18:30;94594.00;;;2.86;83.22
11808;BME280;5961;42.640;23.380;2024-02-15T07:20:57;94576.19;;;2.83;83.18
11808;BME280;5961;42.640;23.380;2024-02-15T07:23:26;94592.16;;;2.86;83.38
11808;BME280;5961;42.640;23.380;2024-02-15T07:25:53;94581.94;;;2.85;83.45
11808;BME280;5961;42.640;23.380;2024-02-15T07:28:20;94570.13;;;2.82;83.06
11808;BME280;5961;42.640;23.380;2024-02-15T07:30:47;94590.84;;;2.89;82.79
11808;BME280;5961;42.640;23.380;2024-02-15T07:33:16;94573.47;;;2.98;82.61
11808;BME280;5961;42.640;23.380;2024-02-15T07:35:44;94577.69;;;2.99;82.82
11808;BME280;5961;42.640;23.380;2024-02-15T07:38:11;94527.66;;;2.75;81.94
11808;BME280;5961;42.640;23.380;2024-02-15T07:40:38;94574.97;;;3.09;81.61
11808;BME280;5961;42.640;23.380;2024-02-15T07:43:05;94582.31;;;3.12;81.73
11808;BME280;5961;42.640;23.380;2024-02-15T07:45:33;94537.50;;;2.93;81.19
11808;BME280;5961;42.640;23.380;2024-02-15T07:48:03;94596.63;;;3.29;80.98
11808;BME280;5961;42.640;23.380;2024-02-15T07:50:30;94581.59;;;3.40;79.86
11808;BME280;5961;42.640;23.380;2024-02-15T07:52:58;94565.25;;;3.48;80.34
11808;BME280;5961;42.640;23.380;2024-02-15T07:55:25;94579.66;;;3.56;79.62
11808;BME280;5961;42.640;23.380;2024-02-15T07:57:53;94563.16;;;3.50;78.94
11808;BME280;5961;42.640;23.380;2024-02-15T08:00:21;94561.56;;;3.49;79.39
11808;BME280;5961;42.640;23.380;2024-02-15T08:02:48;94583.34;;;3.55;78.78
11808;BME280;5961;42.640;23.380;2024-02-15T08:05:14;94573.06;;;3.58;78.32
11808;BME280;5961;42.640;23.380;2024-02-15T08:07:42;94573.31;;;3.62;77.88
11808;BME280;5961;42.640;23.380;2024-02-15T08:10:11;94558.31;;;3.62;77.72
11808;BME280;5961;42.640;23.380;2024-02-15T08:12:40;94569.88;;;3.61;78.16
11808;BME280;5961;42.640;23.380;2024-02-15T08:15:08;94568.28;;;3.65;78.05
11808;BME280;5961;42.640;23.380;2024-02-15T08:17:40;94564.56;;;3.71;77.86
11808;BME280;5961;42.640;23.380;2024-02-15T08:20:09;94563.47;;;3.72;78.97
11808;BME280;5961;42.640;23.380;2024-02-15T08:22:36;94576.03;;;3.80;77.87
11808;BME280;5961;42.640;23.380;2024-02-15T08:25:06;94567.06;;;3.81;77.84
11808;BME280;5961;42.640;23.380;2024-02-15T08:27:37;94580.19;;;3.86;78.26
11808;BME280;5961;42.640;23.380;2024-02-15T08:30:07;94523.63;;;3.60;77.37
11808;BME280;5961;42.640;23.380;2024-02-15T08:32:35;94563.81;;;3.95;77.42
11808;BME280;5961;42.640;23.380;2024-02-15T08:35:02;94581.16;;;3.96;78.18
11808;BME280;5961;42.640;23.380;2024-02-15T08:37:31;94581.06;;;4.06;76.91
11808;BME280;5961;42.640;23.380;2024-02-15T08:39:59;94577.97;;;3.99;76.96
11808;BME280;5961;42.640;23.380;2024-02-15T08:42:26;94562.97;;;3.99;77.11
11808;BME280;5961;42.640;23.380;2024-02-15T08:44:54;94567.34;;;4.09;77.20
11808;BME280;5961;42.640;23.380;2024-02-15T08:47:21;94558.41;;;4.10;76.22
11808;BME280;5961;42.640;23.380;2024-02-15T08:49:47;94548.44;;;4.07;76.58
11808;BME280;5961;42.640;23.380;2024-02-15T08:52:14;94556.25;;;4.12;76.04
11808;BME280;5961;42.640;23.380;2024-02-15T08:54:43;94548.34;;;4.17;76.58
11808;BME280;5961;42.640;23.380;2024-02-15T08:57:10;94556.41;;;4.25;76.71
11808;BME280;5961;42.640;23.380;2024-02-15T08:59:38;94529.19;;;4.11;76.90
11808;BME280;5961;42.640;23.380;2024-02-15T09:02:09;94542.84;;;4.37;75.66
11808;BME280;5961;42.640;23.380;2024-02-15T09:04:36;94551.25;;;4.39;75.01
11808;BME280;5961;42.640;23.380;2024-02-15T09:07:02;94559.84;;;4.44;76.69
11808;BME280;5961;42.640;23.380;2024-02-15T09:09:30;94555.38;;;4.45;74.12
11808;BME280;5961;42.640;23.380;2024-02-15T09:12:01;94570.19;;;4.41;75.59
11808;BME280;5961;42.640;23.380;2024-02-15T09:14:31;94551.69;;;4.46;75.61
11808;BME280;5961;42.640;23.380;2024-02-15T09:16:57;94560.53;;;4.55;74.91
11808;BME280;5961;42.640;23.380;2024-02-15T09:19:26;94556.84;;;4.56;75.02
11808;BME280;5961;42.640;23.380;2024-02-15T09:21:52;94562.03;;;4.61;73.54
11808;BME280;5961;42.640;23.380;2024-02-15T09:24:20;94554.59;;;4.68;73.93
11808;BME280;5961;42.640;23.380;2024-02-15T09:26:47;94559.00;;;4.73;74.45
11808;BME280;5961;42.640;23.380;2024-02-15T09:29:13;94560.25;;;4.80;74.15
11808;BME280;5961;42.640;23.380;2024-02-15T09:31:40;94543.91;;;4.78;73.78
11808;BME280;5961;42.640;23.380;2024-02-15T09:34:06;94556.97;;;4.88;72.97
11808;BME280;5961;42.640;23.380;2024-02-15T09:36:35;94545.88;;;4.91;73.04
11808;BME280;5961;42.640;23.380;2024-02-15T09:39:03;94550.06;;;4.92;72.74
11808;BME280;5961;42.640;23.380;2024-02-15T09:41:30;94553.06;;;5.05;73.70
11808;BME280;5961;42.640;23.380;2024-02-15T09:43:57;94548.38;;;5.02;72.31
11808;BME280;5961;42.640;23.380;2024-02-15T09:46:24;94543.50;;;5.09;72.19
11808;BME280;5961;42.640;23.380;2024-02-15T09:48:51;94539.66;;;5.20;72.64
11808;BME280;5961;42.640;23.380;2024-02-15T09:51:25;94549.34;;;5.24;73.30
11808;BME280;5961;42.640;23.380;2024-02-15T09:53:56;94537.59;;;5.35;72.91
11808;BME280;5961;42.640;23.380;2024-02-15T09:56:24;94536.75;;;5.40;72.14
11808;BME280;5961;42.640;23.380;2024-02-15T09:58:54;94536.38;;;5.46;71.65
11808;BME280;5961;42.640;23.380;2024-02-15T10:01:22;94524.94;;;5.51;70.47
11808;BME280;5961;42.640;23.380;2024-02-15T10:03:49;94534.13;;;5.53;70.48
11808;BME280;5961;42.640;23.380;2024-02-15T10:06:17;94521.47;;;5.56;70.29
11808;BME280;5961;42.640;23.380;2024-02-15T10:08:44;94527.44;;;5.61;70.61
11808;BME280;5961;42.640;23.380;2024-02-15T10:11:13;94528.28;;;5.57;70.77
11808;BME280;5961;42.640;23.380;2024-02-15T10:13:41;94514.63;;;5.54;70.54
11808;BME280;5961;42.640;23.380;2024-02-15T10:16:16;94512.09;;;5.63;70.58
11808;BME280;5961;42.640;23.380;2024-02-15T10:18:44;94524.44;;;5.81;70.56
11808;BME280;5961;42.640;23.380;2024-02-15T10:21:23;94512.84;;;5.82;69.28
11808;BME280;5961;42.640;23.380;2024-02-15T10:24:02;94515.13;;;5.89;69.02
11808;BME280;5961;42.640;23.380;2024-02-15T10:26:31;94505.16;;;5.99;68.18
11808;BME280;5961;42.640;23.380;2024-02-15T10:29:07;94514.34;;;6.02;68.84
11808;BME280;5961;42.640;23.380;2024-02-15T10:31:37;94501.84;;;6.07;68.21
11808;BME280;5961;42.640;23.380;2024-02-15T10:34:06;94492.50;;;6.15;67.90
11808;BME280;5961;42.640;23.380;2024-02-15T10:36:33;94493.84;;;6.13;68.17
11808;BME280;5961;42.640;23.380;2024-02-15T10:39:11;94486.16;;;6.16;68.02
11808;BME280;5961;42.640;23.380;2024-02-15T10:41:43;94487.22;;;6.15;67.53
11808;BME280;5961;42.640;23.380;2024-02-15T10:44:16;94497.59;;;6.25;66.89
11808;BME280;5961;42.640;23.380;2024-02-15T10:46:45;94494.63;;;6.27;67.36
11808;BME280;5961;42.640;23.380;2024-02-15T10:49:16;94491.59;;;6.33;66.29
11808;BME280;5961;42.640;23.380;2024-02-15T10:51:44;94489.53;;;6.44;66.59
11808;BME280;5961;42.640;23.380;2024-02-15T10:54:12;94490.13;;;6.54;66.60
11808;BME280;5961;42.640;23.380;2024-02-15T10:56:44;94485.41;;;6.65;66.42
11808;BME280;5961;42.640;23.380;2024-02-15T10:59:17;94486.97;;;6.66;65.94
11808;BME280;5961;42.640;23.380;2024-02-15T11:01:45;94484.22;;;6.71;66.22
11808;BME280;5961;42.640;23.380;2024-02-15T11:04:14;94472.31;;;6.74;65.86
11808;BME280;5961;42.640;23.380;2024-02-15T11:06:43;94474.81;;;6.79;65.27
11808;BME280;5961;42.640;23.380;2024-02-15T11:09:10;94471.19;;;6.88;65.74
11808;BME280;5961;42.640;23.380;2024-02-15T11:11:39;94474.19;;;6.95;65.54
11808;BME280;5961;42.640;23.380;2024-02-15T11:14:35;94464.00;;;7.02;65.75
11808;BME280;5961;42.640;23.380;2024-02-15T11:17:02;94463.59;;;7.09;65.67
11808;BME280;5961;42.640;23.380;2024-02-15T11:19:41;94459.00;;;7.23;64.69
11808;BME280;5961;42.640;23.380;2024-02-15T11:22:11;94473.44;;;7.39;64.96
11808;BME280;5961;42.640;23.380;2024-02-15T11:24:46;94464.81;;;7.56;64.05
11808;BME280;5961;42.640;23.380;2024-02-15T11:27:24;94459.75;;;7.68;63.52
11808;BME280;5961;42.640;23.380;2024-02-15T11:29:53;94464.19;;;7.81;63.11
11808;BME280;5961;42.640;23.380;2024-02-15T11:32:42;94462.25;;;7.95;62.88
11808;BME280;5961;42.640;23.380;2024-02-15T11:35:15;94464.44;;;8.02;61.80
11808;BME280;5961;42.640;23.380;2024-02-15T11:37:54;94451.75;;;8.12;62.15
11808;BME280;5961;42.640;23.380;2024-02-15T11:40:21;94473.28;;;8.28;61.29
11808;BME280;5961;42.640;23.380;2024-02-15T11:42:53;94462.91;;;8.40;60.32
11808;BME280;5961;42.640;23.380;2024-02-15T11:45:21;94456.69;;;8.45;60.31
11808;BME280;5961;42.640;23.380;2024-02-15T11:47:49;94461.53;;;8.51;60.43
11808;BME280;5961;42.640;23.380;2024-02-15T11:50:17;94455.94;;;8.61;60.23
11808;BME280;5961;42.640;23.380;2024-02-15T11:52:44;94457.06;;;8.69;59.19
11808;BME280;5961;42.640;23.380;2024-02-15T11:55:13;94451.44;;;8.70;59.22
11808;BME280;5961;42.640;23.380;2024-02-15T11:57:40;94451.94;;;8.72;58.71
11808;BME280;5961;42.640;23.380;2024-02-15T12:00:21;94459.72;;;8.86;57.88
11808;BME280;5961;42.640;23.380;2024-02-15T12:03:06;94446.50;;;9.03;57.72
11808;BME280;5961;42.640;23.380;2024-02-15T12:05:51;94450.22;;;9.19;57.15
11808;BME280;5961;42.640;23.380;2024-02-15T12:08:35;94441.63;;;9.31;56.91
11808;BME280;5961;42.640;23.380;2024-02-15T12:11:20;94437.56;;;9.42;55.75
11808;BME280;5961;42.640;23.380;2024-02-15T12:14:04;94436.63;;;9.38;55.78
11808;BME280;5961;42.640;23.380;2024-02-15T12:17:00;94422.91;;;9.45;56.29
11808;BME280;5961;42.640;23.380;2024-02-15T12:20:00;94428.78;;;9.59;55.40
11808;BME280;5961;42.640;23.380;2024-02-15T12:22:33;94429.41;;;9.73;55.61
11808;BME280;5961;42.640;23.380;2024-02-15T12:25:02;94425.75;;;9.86;54.96
11808;BME280;5961;42.640;23.380;2024-02-15T12:27:31;94430.09;;;9.99;54.13
11808;BME280;5961;42.640;23.380;2024-02-15T12:29:59;94421.50;;;10.02;54.10
11808;BME280;5961;42.640;23.380;2024-02-15T12:32:28;94419.13;;;10.09;53.68
11808;BME280;5961;42.640;23.380;2024-02-15T12:35:10;94420.63;;;10.27;53.26
11808;BME280;5961;42.640;23.380;2024-02-15T12:37:38;94415.56;;;10.34;52.93
11808;BME280;5961;42.640;23.380;2024-02-15T12:40:17;94416.31;;;10.43;52.66
11808;BME280;5961;42.640;23.380;2024-02-15T12:42:44;94390.84;;;10.42;53.14
11808;BME280;5961;42.640;23.380;2024-02-15T12:45:16;94413.97;;;10.71;52.63
11808;BME280;5961;42.640;23.380;2024-02-15T12:47:47;94408.56;;;10.80;51.30
11808;BME280;5961;42.640;23.380;2024-02-15T12:50:15;94393.78;;;10.91;51.14
11808;BME280;5961;42.640;23.380;2024-02-15T12:52:42;94405.84;;;11.09;50.76
11808;BME280;5961;42.640;23.380;2024-02-15T12:55:15;94393.94;;;11.27;50.63
11808;BME280;5961;42.640;23.380;2024-02-15T12:57:43;94405.75;;;11.38;49.76
11808;BME280;5961;42.640;23.380;2024-02-15T13:00:13;94396.47;;;11.44;49.32
11808;BME280;5961;42.640;23.380;2024-02-15T13:02:44;94409.22;;;11.72;48.91
11808;BME280;5961;42.640;23.380;2024-02-15T13:05:12;94400.63;;;12.11;47.74
11808;BME280;5961;42.640;23.380;2024-02-15T13:07:39;94389.47;;;11.97;47.80
11808;BME280;5961;42.640;23.380;2024-02-15T13:10:06;94391.28;;;12.05;47.64
11808;BME280;5961;42.640;23.380;2024-02-15T13:12:34;94366.47;;;11.68;47.66
11808;BME280;5961;42.640;23.380;2024-02-15T13:15:02;94391.59;;;11.91;48.12
11808;BME280;5961;42.640;23.380;2024-02-15T13:17:30;94398.06;;;12.02;47.27
11808;BME280;5961;42.640;23.380;2024-02-15T13:19:59;94406.72;;;12.12;46.55